Time;durP1;ratioP1;P1;durP2;ratioP2;P2;SDS_P1;SDS_P2;PMS_P1;PMS_P2;Temp;Humidity;BMP_temperature;BMP_pressure;BME280_temperature;BME280_humidity;BME280_pressure;Samples;Min_cycle;Max_cycle;Signal;HPM_P1;HPM_P2
2022/01/03 00:01:46;;;;;;;5.97;1.60;;;;;;;13.16;53.39;96696.47;5065966;28;20503;-69
2022/01/03 00:04:14;;;;;;;4.57;1.80;;;;;;;12.93;53.52;96723.66;5074402;28;20521;-70
2022/01/03 00:06:40;;;;;;;4.30;1.50;;;;;;;13.18;53.02;96700.56;5067689;28;20792;-68
2022/01/03 00:09:07;;;;;;;6.20;1.87;;;;;;;13.25;52.88;96710.38;5062866;28;20429;-69
2022/01/03 00:11:33;;;;;;;4.93;1.50;;;;;;;13.43;52.17;96702.13;5073793;28;20667;-68
2022/01/03 00:13:58;;;;;;;7.03;1.37;;;;;;;13.29;52.47;96695.84;5074249;28;20760;-69
2022/01/03 00:16:24;;;;;;;7.10;1.50;;;;;;;13.54;51.94;96687.69;5074321;28;20425;-70
2022/01/03 00:18:53;;;;;;;5.00;1.77;;;;;;;13.75;51.30;96685.13;5065423;28;20289;-68
2022/01/03 00:21:20;;;;;;;5.07;1.43;;;;;;;13.65;51.39;96684.59;5058003;28;20234;-69
2022/01/03 00:23:56;;;;;;;4.93;1.50;;;;;;;13.29;52.04;96669.53;5070629;28;20408;-68
2022/01/03 00:26:24;;;;;;;4.53;1.60;;;;;;;13.36;51.85;96692.28;5051559;28;20503;-69
2022/01/03 00:28:58;;;;;;;6.53;1.70;;;;;;;13.44;51.73;96680.88;5074287;28;21044;-69
2022/01/03 00:31:33;;;;;;;9.37;1.87;;;;;;;13.34;52.15;96685.59;5051528;28;20930;-70
2022/01/03 00:33:59;;;;;;;4.53;1.50;;;;;;;13.30;52.26;96693.03;5065347;28;20785;-68
2022/01/03 00:36:27;;;;;;;4.37;1.97;;;;;;;13.46;51.65;96693.88;5073846;28;20764;-69
2022/01/03 00:38:54;;;;;;;4.00;1.77;;;;;;;13.66;51.18;96702.84;5073449;28;20488;-69
2022/01/03 00:41:21;;;;;;;5.50;1.50;;;;;;;13.26;52.20;96712.00;5073854;28;20827;-70
2022/01/03 00:43:47;;;;;;;3.97;1.50;;;;;;;13.40;51.58;96707.75;5073607;28;20412;-68
2022/01/03 00:46:14;;;;;;;7.37;1.70;;;;;;;13.05;52.67;96695.94;5071912;28;20428;-68
2022/01/03 00:48:40;;;;;;;2.50;1.47;;;;;;;13.34;52.22;96704.84;5072308;28;20429;-69
2022/01/03 00:51:05;;;;;;;3.13;1.23;;;;;;;13.27;52.05;96698.66;5073282;28;20419;-69
2022/01/03 00:53:31;;;;;;;7.60;1.40;;;;;;;13.23;52.22;96692.13;5072298;28;20660;-69
2022/01/03 00:56:28;;;;;;;4.57;1.60;;;;;;;13.30;52.11;96705.34;5073553;28;20204;-69
2022/01/03 00:59:09;;;;;;;6.90;1.87;;;;;;;13.16;52.54;96718.34;5056653;28;20708;-68
2022/01/03 01:01:39;;;;;;;4.30;1.50;;;;;;;13.67;51.08;96712.38;5064764;28;20416;-68
2022/01/03 01:04:08;;;;;;;2.53;1.53;;;;;;;13.01;53.15;96709.63;5071785;28;20424;-70
2022/01/03 01:06:35;;;;;;;3.67;1.60;;;;;;;13.08;52.94;96704.47;5073252;28;20424;-69
2022/01/03 01:09:05;;;;;;;3.83;1.80;;;;;;;12.84;53.22;96711.59;5072659;28;20443;-69
2022/01/03 01:11:30;;;;;;;5.03;1.77;;;;;;;13.03;52.72;96711.06;5073064;28;20420;-69
2022/01/03 01:13:57;;;;;;;6.43;1.73;;;;;;;13.25;52.51;96732.22;5072602;28;20413;-70
2022/01/03 01:16:23;;;;;;;3.77;1.30;;;;;;;12.97;52.62;96739.91;5073081;28;20421;-68
2022/01/03 01:18:50;;;;;;;6.13;1.90;;;;;;;13.36;51.63;96728.34;5065294;28;20450;-69
2022/01/03 01:21:16;;;;;;;4.33;1.90;;;;;;;13.05;52.24;96719.59;5072461;28;20424;-69
2022/01/03 01:23:43;;;;;;;6.43;1.73;;;;;;;13.51;51.41;96720.44;5069426;28;20459;-69
2022/01/03 01:28:53;;;;;;;6.60;1.93;;;;;;;12.89;52.65;96711.88;5072340;28;20809;-69
2022/01/03 01:31:24;;;;;;;5.27;1.13;;;;;;;13.70;51.22;96718.28;5064192;28;20416;-69
2022/01/03 01:33:54;;;;;;;3.33;1.50;;;;;;;13.75;50.81;96729.88;5073021;28;20265;-69
2022/01/03 01:36:27;;;;;;;5.10;1.60;;;;;;;13.14;52.80;96725.59;5056938;28;20775;-69
2022/01/03 01:38:59;;;;;;;7.10;1.57;;;;;;;13.50;51.86;96740.72;5071231;28;20469;-69
2022/01/03 01:41:27;;;;;;;7.33;1.70;;;;;;;13.09;52.70;96748.19;5072544;28;20417;-69
2022/01/03 01:43:57;;;;;;;7.30;1.80;;;;;;;12.86;53.62;96749.03;5062828;28;20426;-68
2022/01/03 01:46:24;;;;;;;4.40;1.50;;;;;;;13.19;52.33;96743.47;5071830;28;20440;-70
2022/01/03 01:48:51;;;;;;;5.33;1.70;;;;;;;13.19;52.89;96751.38;5071966;28;20433;-70
2022/01/03 01:51:19;;;;;;;4.80;1.63;;;;;;;12.80;54.06;96773.44;5071841;28;20927;-68
2022/01/03 01:53:48;;;;;;;5.53;1.47;;;;;;;12.72;54.31;96758.53;5072305;28;20515;-68
2022/01/03 01:56:21;;;;;;;2.90;1.70;;;;;;;12.95;53.45;96747.97;5063585;28;20515;-68
2022/01/03 01:59:20;;;;;;;5.90;1.50;;;;;;;13.51;52.35;96752.88;5068179;28;20510;-68
2022/01/03 02:01:54;;;;;;;5.17;1.70;;;;;;;12.94;53.73;96746.34;5055934;28;20951;-69
2022/01/03 02:04:38;;;;;;;3.60;1.50;;;;;;;13.33;53.09;96733.94;5070352;28;20920;-69
2022/01/03 02:07:19;;;;;;;2.73;1.30;;;;;;;12.84;54.63;96756.31;5071796;28;20421;-68
2022/01/03 02:10:10;;;;;;;6.70;1.70;;;;;;;12.69;54.96;96736.03;5071331;28;20451;-69
2022/01/03 02:12:44;;;;;;;4.23;1.40;;;;;;;12.59;55.60;96730.22;5065359;28;20798;-68
2022/01/03 02:15:13;;;;;;;2.50;1.50;;;;;;;12.87;54.92;96734.88;5071847;28;20783;-69
2022/01/03 02:17:39;;;;;;;2.03;1.23;;;;;;;12.51;55.78;96751.28;5064949;28;20468;-69
2022/01/03 02:20:08;;;;;;;3.00;1.40;;;;;;;12.50;55.96;96744.41;5069740;28;20445;-69
2022/01/03 02:22:35;;;;;;;7.23;1.63;;;;;;;12.89;55.19;96748.69;5067757;28;20412;-70
2022/01/03 02:25:01;;;;;;;2.80;1.50;;;;;;;12.84;55.10;96740.53;5064078;28;20428;-69
2022/01/03 02:27:26;;;;;;;5.00;2.17;;;;;;;12.96;55.02;96749.63;5071676;28;20764;-70
2022/01/03 02:29:52;;;;;;;3.23;1.53;;;;;;;12.59;56.19;96743.38;5070922;28;20681;-70
2022/01/03 02:32:17;;;;;;;5.83;1.70;;;;;;;12.91;55.03;96744.06;5063349;28;20189;-69
2022/01/03 02:34:43;;;;;;;5.63;1.63;;;;;;;12.86;55.28;96734.09;5071412;28;20182;-69
2022/01/03 02:37:08;;;;;;;5.87;1.80;;;;;;;12.68;55.69;96741.47;5071159;28;20201;-69
2022/01/03 02:39:34;;;;;;;4.80;1.90;;;;;;;13.07;54.45;96737.84;5069895;28;20276;-68
2022/01/03 02:41:59;;;;;;;5.23;1.40;;;;;;;12.64;55.84;96746.25;5071400;28;20644;-69
2022/01/03 02:44:25;;;;;;;9.20;1.77;;;;;;;12.36;56.45;96746.78;5071525;28;20182;-69
2022/01/03 02:46:51;;;;;;;2.60;1.40;;;;;;;12.52;56.19;96745.88;5071153;28;20236;-68
2022/01/03 02:49:17;;;;;;;2.37;1.33;;;;;;;12.42;56.98;96732.97;5071588;28;20476;-69
2022/01/03 02:51:44;;;;;;;3.40;1.30;;;;;;;12.82;55.61;96724.09;5075227;28;20185;-69
2022/01/03 02:54:10;;;;;;;7.17;1.80;;;;;;;12.79;55.67;96725.25;5074985;28;20178;-68
2022/01/03 02:56:36;;;;;;;2.73;1.60;;;;;;;12.69;55.79;96733.41;5074316;28;20452;-69
2022/01/03 02:59:02;;;;;;;3.93;1.37;;;;;;;12.65;56.04;96726.88;5072694;28;20568;-69
2022/01/03 03:01:27;;;;;;;3.83;1.60;;;;;;;12.86;55.49;96722.72;5067096;28;20216;-69
2022/01/03 03:03:53;;;;;;;5.57;1.70;;;;;;;12.60;55.74;96731.84;5074365;28;20412;-69
2022/01/03 03:06:19;;;;;;;7.63;1.70;;;;;;;12.72;55.59;96732.22;5075436;28;20177;-69
2022/01/03 03:08:44;;;;;;;5.53;1.50;;;;;;;12.72;55.52;96738.31;5074787;28;20277;-69
2022/01/03 03:11:10;;;;;;;4.70;1.70;;;;;;;12.79;55.16;96742.88;5074776;28;20327;-69
2022/01/03 03:13:35;;;;;;;3.93;1.43;;;;;;;13.09;54.88;96742.94;5074777;28;20182;-68
2022/01/03 03:16:01;;;;;;;3.90;1.50;;;;;;;12.55;56.01;96736.81;5074694;28;20189;-69
2022/01/03 03:18:26;;;;;;;6.20;1.67;;;;;;;12.54;55.74;96729.91;5074749;28;20218;-69
2022/01/03 03:20:54;;;;;;;3.90;1.53;;;;;;;12.70;55.61;96740.31;5073429;28;20170;-68
2022/01/03 03:23:23;;;;;;;3.30;1.40;;;;;;;12.59;55.77;96740.72;5069990;28;20530;-68
2022/01/03 03:25:48;;;;;;;5.20;1.63;;;;;;;12.97;54.60;96732.00;5066867;28;20469;-69
2022/01/03 03:28:15;;;;;;;3.60;1.57;;;;;;;12.74;54.96;96738.94;5073211;28;20433;-69
2022/01/03 03:30:43;;;;;;;5.40;1.50;;;;;;;12.56;55.46;96751.59;5068006;28;20556;-69
2022/01/03 03:33:20;;;;;;;3.43;1.43;;;;;;;12.41;55.67;96760.22;5073512;28;20417;-69
2022/01/03 03:35:46;;;;;;;4.47;1.40;;;;;;;12.44;55.22;96756.44;5074587;28;20903;-68
2022/01/03 03:38:12;;;;;;;2.77;1.27;;;;;;;12.49;55.07;96754.09;5066023;28;20456;-69
2022/01/03 03:40:38;;;;;;;4.03;1.57;;;;;;;12.47;55.02;96748.19;5074547;28;20487;-70
2022/01/03 03:43:05;;;;;;;6.80;2.10;;;;;;;12.38;54.96;96744.81;5074796;28;20448;-69
2022/01/03 03:45:32;;;;;;;3.83;1.60;;;;;;;12.47;54.93;96750.03;5073313;28;20439;-69
2022/01/03 03:47:57;;;;;;;6.00;1.50;;;;;;;12.38;54.68;96750.06;5065546;28;20433;-69
2022/01/03 03:50:24;;;;;;;4.17;1.30;;;;;;;12.48;54.79;96738.50;5073932;28;20511;-69
2022/01/03 03:52:50;;;;;;;3.00;1.40;;;;;;;12.72;53.74;96729.59;5074557;28;20183;-69
2022/01/03 03:55:15;;;;;;;6.10;1.50;;;;;;;12.12;54.95;96738.06;5066017;28;20417;-69
2022/01/03 03:57:41;;;;;;;5.87;1.27;;;;;;;12.37;54.25;96735.28;5070922;28;20209;-68
2022/01/03 04:00:09;;;;;;;4.40;1.40;;;;;;;12.39;54.42;96735.13;5072486;28;20255;-69
2022/01/03 04:02:35;;;;;;;5.30;1.33;;;;;;;12.64;53.32;96724.44;5066572;28;20270;-69
2022/01/03 04:05:01;;;;;;;5.60;1.20;;;;;;;12.42;54.02;96732.97;5071473;28;20494;-69
2022/01/03 04:07:27;;;;;;;3.07;1.43;;;;;;;12.34;54.16;96743.53;5067928;28;20589;-70
2022/01/03 04:09:53;;;;;;;3.17;1.30;;;;;;;12.30;54.37;96742.25;5073652;28;20467;-69
2022/01/03 04:12:18;;;;;;;6.70;1.50;;;;;;;12.04;55.02;96732.88;5073942;28;20751;-70
2022/01/03 04:14:44;;;;;;;4.50;1.43;;;;;;;12.42;54.23;96732.13;5069351;28;20202;-70
2022/01/03 04:17:10;;;;;;;4.80;1.53;;;;;;;12.63;53.72;96726.22;5072429;28;20657;-69
2022/01/03 04:19:36;;;;;;;6.73;1.77;;;;;;;12.40;54.15;96729.69;5071880;28;20290;-68
2022/01/03 04:22:02;;;;;;;4.73;1.57;;;;;;;12.31;54.64;96722.84;5070290;28;20422;-69
2022/01/03 04:24:27;;;;;;;6.80;1.70;;;;;;;12.55;53.57;96731.56;5073791;28;20185;-70
2022/01/03 04:26:53;;;;;;;3.80;1.50;;;;;;;12.38;54.29;96729.03;5073413;28;20214;-69
2022/01/03 04:29:18;;;;;;;4.13;1.37;;;;;;;12.21;55.05;96730.16;5073026;28;20210;-70
2022/01/03 04:31:44;;;;;;;6.33;1.50;;;;;;;12.53;54.26;96733.53;5065191;28;20178;-69
2022/01/03 04:34:10;;;;;;;6.00;1.40;;;;;;;12.81;53.51;96730.34;5073355;28;20190;-70
2022/01/03 04:36:35;;;;;;;6.07;1.90;;;;;;;12.60;54.17;96745.81;5073466;28;20178;-68
2022/01/03 04:39:03;;;;;;;6.93;1.60;;;;;;;12.30;54.96;96750.13;5072537;28;20293;-69
2022/01/03 04:41:28;;;;;;;7.13;1.80;;;;;;;12.66;54.54;96733.75;5073133;28;20295;-70
2022/01/03 04:43:54;;;;;;;6.27;1.50;;;;;;;12.36;54.99;96746.78;5073190;28;20423;-70
2022/01/03 04:46:19;;;;;;;6.40;1.80;;;;;;;12.08;55.94;96739.44;5061874;28;20286;-70
2022/01/03 04:48:45;;;;;;;8.07;1.70;;;;;;;12.47;55.12;96739.50;5055819;28;20213;-70
2022/01/03 04:51:11;;;;;;;7.13;1.77;;;;;;;12.44;54.66;96746.75;5053583;28;20189;-68
2022/01/03 04:53:39;;;;;;;8.37;2.07;;;;;;;12.40;54.85;96742.81;5052781;28;20641;-68
2022/01/03 04:56:07;;;;;;;2.40;1.27;;;;;;;12.64;54.76;96735.75;5052575;28;20420;-69
2022/01/03 04:58:32;;;;;;;7.53;1.70;;;;;;;12.29;55.54;96748.50;5048902;28;20465;-67
2022/01/03 05:00:58;;;;;;;5.37;1.60;;;;;;;12.32;55.54;96750.78;5052265;28;20521;-69
2022/01/03 05:03:24;;;;;;;3.90;1.50;;;;;;;12.73;54.60;96747.81;5054311;28;20190;-68
2022/01/03 05:05:49;;;;;;;5.30;1.60;;;;;;;12.40;55.19;96763.84;5054043;28;20506;-68
2022/01/03 05:08:15;;;;;;;5.70;1.57;;;;;;;12.55;55.26;96770.97;5054343;28;20264;-68
2022/01/03 05:10:40;;;;;;;8.20;1.90;;;;;;;12.27;56.26;96771.47;5052342;28;20186;-69
2022/01/03 05:13:06;;;;;;;5.90;1.47;;;;;;;12.37;57.02;96764.19;5051318;28;20244;-69
2022/01/03 05:15:32;;;;;;;7.03;1.80;;;;;;;12.40;57.08;96761.22;5053245;28;20182;-68
2022/01/03 05:17:57;;;;;;;7.27;1.90;;;;;;;12.66;56.27;96765.31;5055098;28;20332;-69
2022/01/03 05:20:23;;;;;;;8.03;1.60;;;;;;;12.28;56.74;96752.09;5053674;28;20229;-69
2022/01/03 05:22:48;;;;;;;9.10;1.70;;;;;;;12.86;56.06;96759.56;5056489;28;20556;-69
2022/01/03 05:25:14;;;;;;;4.87;1.50;;;;;;;12.66;56.59;96764.50;5053085;28;20262;-69
2022/01/03 05:27:40;;;;;;;4.50;1.37;;;;;;;12.82;56.04;96747.78;5052358;28;20178;-69
2022/01/03 05:30:07;;;;;;;7.57;1.73;;;;;;;13.05;55.65;96748.53;5051665;28;20199;-69
2022/01/03 05:32:33;;;;;;;9.97;1.50;;;;;;;13.29;54.60;96749.28;5052252;28;20422;-68
2022/01/03 05:34:58;;;;;;;8.43;1.60;;;;;;;12.38;56.42;96763.19;5052239;28;20425;-70
2022/01/03 05:37:24;;;;;;;7.20;1.67;;;;;;;12.71;55.70;96751.63;5051818;28;20673;-70
2022/01/03 05:39:50;;;;;;;9.07;2.10;;;;;;;12.26;56.40;96754.91;5059547;28;20202;-70
2022/01/03 05:42:15;;;;;;;4.50;1.73;;;;;;;12.66;55.07;96761.88;5051930;28;20641;-70
2022/01/03 05:44:41;;;;;;;3.97;1.67;;;;;;;12.48;55.14;96765.59;5053037;28;20175;-69
2022/01/03 05:47:06;;;;;;;11.43;2.10;;;;;;;12.86;54.38;96751.66;5053729;28;20187;-70
2022/01/03 05:49:32;;;;;;;6.77;1.60;;;;;;;12.84;54.16;96762.38;5051868;28;20199;-68
2022/01/03 05:51:57;;;;;;;3.93;1.30;;;;;;;12.51;54.55;96773.16;5060178;28;20746;-70
2022/01/03 05:54:23;;;;;;;6.40;1.50;;;;;;;12.82;53.65;96776.69;5051508;28;20646;-69
2022/01/03 05:56:49;;;;;;;6.17;1.80;;;;;;;12.27;55.10;96784.63;5048693;28;20203;-68
2022/01/03 05:59:14;;;;;;;5.70;1.47;;;;;;;13.00;52.88;96773.75;5050911;28;20562;-69
2022/01/03 06:01:41;;;;;;;11.30;1.80;;;;;;;13.18;52.46;96774.22;5051730;28;20187;-70
2022/01/03 06:04:22;;;;;;;5.30;1.73;;;;;;;12.96;52.82;96773.28;5052060;28;20190;-69
2022/01/03 06:07:03;;;;;;;7.33;1.60;;;;;;;12.64;53.94;96788.31;5051822;28;20433;-69
2022/01/03 06:09:28;;;;;;;6.17;1.60;;;;;;;13.10;52.29;96781.41;5051673;28;20453;-70
2022/01/03 06:11:54;;;;;;;5.63;1.33;;;;;;;13.18;52.25;96773.41;5051645;28;20937;-69
2022/01/03 06:14:21;;;;;;;6.13;1.73;;;;;;;13.06;52.68;96781.75;5051727;28;20193;-68
2022/01/03 06:16:48;;;;;;;8.43;1.40;;;;;;;13.17;52.28;96766.53;5053628;28;20487;-70
2022/01/03 06:19:14;;;;;;;8.77;1.57;;;;;;;12.69;52.85;96780.75;5050724;28;21117;-69
2022/01/03 06:21:43;;;;;;;5.10;1.80;;;;;;;12.56;53.64;96768.16;5052430;28;20524;-69
2022/01/03 06:24:09;;;;;;;4.47;1.63;;;;;;;12.86;52.55;96772.69;5051893;28;20183;-69
2022/01/03 06:26:41;;;;;;;6.07;1.60;;;;;;;12.64;52.98;96769.91;5051825;28;20570;-70
2022/01/03 06:29:08;;;;;;;3.27;1.17;;;;;;;12.43;53.79;96763.50;5050617;28;20433;-69
2022/01/03 06:31:34;;;;;;;5.67;1.80;;;;;;;12.85;52.40;96753.50;5051616;28;20483;-69
2022/01/03 06:34:00;;;;;;;5.90;1.50;;;;;;;12.88;52.41;96766.28;5052465;28;20430;-69
2022/01/03 06:36:26;;;;;;;5.40;1.63;;;;;;;12.75;52.58;96753.72;5059100;28;20522;-69
2022/01/03 06:38:52;;;;;;;7.80;1.60;;;;;;;12.77;52.92;96760.63;5061594;28;20460;-69
2022/01/03 06:41:17;;;;;;;5.57;1.40;;;;;;;12.68;53.28;96768.59;5052862;28;20182;-67
2022/01/03 06:43:43;;;;;;;6.10;1.33;;;;;;;12.80;53.37;96755.00;5034111;28;20265;-70
2022/01/03 06:46:09;;;;;;;8.00;1.60;;;;;;;12.34;54.63;96766.34;5050323;28;20189;-70
2022/01/03 06:48:34;;;;;;;10.27;1.63;;;;;;;12.28;54.44;96768.69;5050233;28;20609;-69
2022/01/03 06:51:00;;;;;;;7.03;1.80;;;;;;;12.24;54.67;96762.16;5050972;28;20186;-69
2022/01/03 06:53:26;;;;;;;11.70;2.23;;;;;;;12.02;55.16;96755.88;5051695;28;20186;-69
2022/01/03 06:55:51;;;;;;;5.13;1.70;;;;;;;12.58;54.32;96754.88;5051634;28;20484;-69
2022/01/03 06:58:17;;;;;;;7.30;1.50;;;;;;;12.37;55.02;96755.50;5064302;28;20206;-70
2022/01/03 07:00:42;;;;;;;5.43;1.43;;;;;;;12.72;54.24;96764.63;5050840;28;20232;-69
2022/01/03 07:03:08;;;;;;;8.23;1.40;;;;;;;13.11;53.32;96754.06;5051149;28;20182;-70
2022/01/03 07:05:33;;;;;;;12.03;2.43;;;;;;;13.09;53.87;96759.53;5055827;28;20178;-69
2022/01/03 07:08:02;;;;;;;8.93;2.00;;;;;;;12.90;54.36;96760.84;5071044;28;20182;-68
2022/01/03 07:10:27;;;;;;;8.23;2.10;;;;;;;12.03;56.75;96765.38;5070914;28;20182;-69
2022/01/03 07:12:54;;;;;;;8.77;1.77;;;;;;;12.43;56.65;96760.03;5070735;28;20508;-68
2022/01/03 07:20:50;;;;;;;9.30;2.13;;;;;;;12.46;57.74;96769.41;5070918;28;20515;-67
2022/01/03 07:23:17;;;;;;;11.17;1.50;;;;;;;12.18;58.85;96764.66;5066077;28;20429;-67
2022/01/03 07:25:44;;;;;;;6.87;1.60;;;;;;;12.01;58.73;96767.34;5069790;28;20832;-66
2022/01/03 07:28:09;;;;;;;9.80;1.77;;;;;;;12.09;59.29;96767.34;5069340;28;20950;-68
2022/01/03 07:30:35;;;;;;;6.80;1.87;;;;;;;12.12;58.79;96774.84;5069051;28;20424;-68
2022/01/03 07:33:01;;;;;;;7.80;2.27;;;;;;;11.90;59.90;96768.53;5070831;28;20697;-68
2022/01/03 07:35:26;;;;;;;8.03;2.20;;;;;;;12.16;59.09;96761.38;5064455;28;20198;-68
2022/01/03 07:37:53;;;;;;;11.57;3.47;;;;;;;12.54;58.43;96756.19;5074146;28;20198;-68
2022/01/03 07:40:20;;;;;;;6.80;2.33;;;;;;;12.36;58.97;96767.81;5058858;28;20197;-68
2022/01/03 07:42:45;;;;;;;5.40;1.70;;;;;;;12.24;59.20;96750.81;5074876;28;20416;-68
2022/01/03 07:45:11;;;;;;;7.20;2.50;;;;;;;12.26;59.22;96756.72;5074644;28;20871;-68
2022/01/03 07:47:37;;;;;;;8.70;1.80;;;;;;;12.69;58.29;96754.44;5074779;28;20210;-68
2022/01/03 07:50:04;;;;;;;7.93;2.00;;;;;;;12.40;59.59;96749.91;5072735;28;20668;-67
2022/01/03 07:52:30;;;;;;;7.87;2.80;;;;;;;12.12;60.44;96753.03;5074420;28;20178;-68
2022/01/03 07:54:55;;;;;;;7.23;2.20;;;;;;;11.93;61.56;96770.00;5074128;28;20417;-69
2022/01/03 07:57:21;;;;;;;6.47;1.77;;;;;;;11.80;62.69;96765.28;5067490;28;20198;-69
2022/01/03 07:59:47;;;;;;;6.67;1.80;;;;;;;12.03;62.41;96765.38;5073818;28;20206;-68
2022/01/03 08:02:13;;;;;;;8.60;2.73;;;;;;;11.98;62.86;96758.03;5074220;28;20417;-65
2022/01/03 08:04:38;;;;;;;7.37;1.67;;;;;;;11.46;64.48;96751.50;5070722;28;20210;-68
2022/01/03 08:07:04;;;;;;;4.87;1.97;;;;;;;11.44;64.94;96750.84;5072231;28;20613;-68
2022/01/03 08:09:30;;;;;;;9.63;2.30;;;;;;;11.30;65.36;96736.59;5073630;28;20222;-67
2022/01/03 08:11:56;;;;;;;6.17;2.30;;;;;;;12.03;63.52;96741.75;5073640;28;20924;-67
2022/01/03 08:14:22;;;;;;;7.33;2.50;;;;;;;11.37;65.34;96737.56;5073948;28;20477;-67
2022/01/03 08:16:48;;;;;;;8.60;4.13;;;;;;;11.97;63.43;96734.53;5073777;28;20450;-68
2022/01/03 08:19:14;;;;;;;4.43;2.10;;;;;;;11.71;63.96;96742.69;5071891;28;20460;-68
2022/01/03 08:21:39;;;;;;;11.67;2.30;;;;;;;11.71;64.09;96737.44;5072044;28;20178;-68
2022/01/03 08:24:05;;;;;;;7.37;2.57;;;;;;;11.75;63.00;96736.91;5070826;28;20180;-68
2022/01/03 08:26:31;;;;;;;6.70;1.93;;;;;;;11.91;62.07;96733.38;5065008;28;20772;-67
2022/01/03 08:28:57;;;;;;;8.23;1.50;;;;;;;11.98;61.72;96730.94;5065074;28;20998;-69
2022/01/03 08:31:23;;;;;;;15.97;3.73;;;;;;;11.84;62.39;96738.50;5074220;28;20421;-68
2022/01/03 08:33:48;;;;;;;17.83;3.80;;;;;;;11.13;63.48;96727.94;5074051;28;20175;-67
2022/01/03 08:36:14;;;;;;;8.10;2.00;;;;;;;12.04;61.10;96746.00;5068225;28;20179;-67
2022/01/03 08:38:40;;;;;;;9.50;2.00;;;;;;;12.02;61.29;96745.34;5075524;28;20218;-68
2022/01/03 08:41:06;;;;;;;9.20;2.20;;;;;;;11.77;61.47;96745.44;5081418;28;20178;-68
2022/01/03 08:43:32;;;;;;;11.33;1.70;;;;;;;11.49;61.87;96753.75;5081098;28;20178;-67
2022/01/03 08:45:58;;;;;;;12.67;2.40;;;;;;;11.95;60.34;96747.03;5081951;28;20417;-67
2022/01/03 08:48:23;;;;;;;9.93;2.37;;;;;;;11.70;61.04;96752.38;5080736;28;20470;-67
2022/01/03 08:50:49;;;;;;;4.50;1.80;;;;;;;12.23;59.95;96749.16;5077682;28;20182;-67
2022/01/03 08:53:15;;;;;;;9.30;1.90;;;;;;;12.20;59.75;96744.28;5073496;28;20186;-67
2022/01/03 08:55:41;;;;;;;8.67;2.77;;;;;;;12.18;60.28;96741.81;5073082;28;20213;-68
2022/01/03 08:58:07;;;;;;;8.53;1.80;;;;;;;11.87;60.36;96750.50;5070233;28;20312;-68
2022/01/03 09:00:33;;;;;;;5.53;1.90;;;;;;;12.44;59.18;96746.75;5072742;28;21126;-66
2022/01/03 09:02:59;;;;;;;8.23;1.80;;;;;;;12.25;59.61;96750.66;5073139;28;20209;-70
2022/01/03 09:05:25;;;;;;;6.10;2.40;;;;;;;12.12;59.49;96753.84;5067744;28;20908;-67
2022/01/03 09:07:50;;;;;;;9.13;2.03;;;;;;;11.55;60.65;96748.81;5073220;28;20247;-66
2022/01/03 09:10:16;;;;;;;6.37;1.73;;;;;;;11.76;60.20;96749.06;5072214;28;20198;-67
2022/01/03 09:12:41;;;;;;;16.43;2.67;;;;;;;12.51;58.37;96746.03;5073172;28;20178;-69
2022/01/03 09:15:07;;;;;;;5.73;1.60;;;;;;;12.78;57.29;96738.59;5071551;28;20175;-68
2022/01/03 09:17:33;;;;;;;6.27;2.17;;;;;;;12.77;56.93;96734.31;5072607;28;20202;-68
2022/01/03 09:19:58;;;;;;;9.43;1.77;;;;;;;12.04;58.26;96734.66;5072809;28;20455;-66
2022/01/03 09:22:31;;;;;;;4.10;1.60;;;;;;;12.83;56.88;96739.69;5072500;28;20636;-66
2022/01/03 09:30:09;;;;;;;3.77;1.87;;;;;;;12.54;57.03;96735.16;5063770;28;20443;-66
2022/01/03 09:32:35;;;;;;;5.00;1.90;;;;;;;13.05;55.51;96730.13;5072147;28;20420;-67
2022/01/03 09:35:00;;;;;;;6.03;1.70;;;;;;;13.06;55.42;96733.56;5066492;28;20868;-67
2022/01/03 09:37:26;;;;;;;6.60;2.30;;;;;;;12.43;56.82;96734.59;5071800;28;20205;-66
2022/01/03 09:39:52;;;;;;;7.13;1.77;;;;;;;12.71;55.75;96723.53;5070787;28;20189;-69
2022/01/03 09:42:23;;;;;;;7.27;1.60;;;;;;;12.80;55.78;96721.63;5056387;28;20413;-67
2022/01/03 09:44:50;;;;;;;8.80;2.03;;;;;;;12.96;55.42;96712.81;5072467;28;20178;-67
2022/01/03 09:47:18;;;;;;;9.20;1.80;;;;;;;12.99;55.15;96717.69;5071818;28;20456;-66
2022/01/03 09:49:45;;;;;;;3.27;1.47;;;;;;;12.47;56.47;96724.53;5068719;28;20470;-69
2022/01/03 09:52:10;;;;;;;9.67;2.37;;;;;;;12.60;56.18;96719.50;5063094;28;20754;-68
2022/01/03 09:54:37;;;;;;;5.53;1.73;;;;;;;12.90;55.65;96724.03;5072243;28;20421;-68
2022/01/03 09:57:04;;;;;;;10.07;1.83;;;;;;;13.06;54.91;96723.88;5067025;28;20183;-67
2022/01/03 09:59:31;;;;;;;4.90;1.77;;;;;;;13.36;54.20;96723.88;5071071;28;20440;-66
2022/01/03 10:01:58;;;;;;;5.00;1.50;;;;;;;12.42;56.80;96732.97;5071587;28;20426;-67
2022/01/03 10:04:24;;;;;;;7.60;1.70;;;;;;;13.23;54.76;96718.44;5070356;28;20420;-68
2022/01/03 10:06:50;;;;;;;9.23;1.80;;;;;;;12.98;55.60;96726.56;5067646;28;20425;-67
2022/01/03 10:09:18;;;;;;;6.23;1.70;;;;;;;13.11;55.09;96725.13;5069551;28;20440;-67
2022/01/03 10:11:44;;;;;;;11.03;2.20;;;;;;;13.54;53.58;96722.72;5071531;28;20424;-68
2022/01/03 10:14:11;;;;;;;8.20;1.67;;;;;;;12.73;55.63;96718.09;5071174;28;20424;-68
2022/01/03 10:16:38;;;;;;;9.70;2.23;;;;;;;13.13;54.52;96720.50;5064811;28;20588;-66
2022/01/03 10:19:03;;;;;;;5.37;1.67;;;;;;;13.07;54.78;96729.94;5067525;28;20452;-67
2022/01/03 10:21:41;;;;;;;9.03;1.60;;;;;;;13.10;55.33;96726.97;5069694;28;21257;-68
2022/01/03 10:24:08;;;;;;;8.70;2.10;;;;;;;12.62;56.76;96726.41;5070088;28;20179;-67
2022/01/03 10:26:36;;;;;;;4.93;1.60;;;;;;;13.21;55.07;96725.72;5071481;28;20818;-67
2022/01/03 10:29:19;;;;;;;5.33;2.30;;;;;;;13.44;54.49;96719.56;5070648;28;20554;-67
2022/01/03 10:31:46;;;;;;;7.53;2.00;;;;;;;12.89;56.00;96722.38;5071002;28;20466;-68
2022/01/03 10:34:15;;;;;;;6.60;1.97;;;;;;;13.32;55.62;96717.34;5071091;28;20440;-67
2022/01/03 10:36:46;;;;;;;4.10;1.53;;;;;;;13.05;55.62;96716.97;5066288;28;20420;-69
2022/01/03 10:39:20;;;;;;;7.20;2.20;;;;;;;13.43;54.63;96715.28;5071147;28;20464;-68
2022/01/03 10:41:48;;;;;;;4.17;1.47;;;;;;;13.39;55.06;96724.50;5072301;28;20453;-67
2022/01/03 10:44:41;;;;;;;9.23;1.90;;;;;;;13.18;55.63;96715.53;5071169;28;20478;-67
2022/01/03 10:47:08;;;;;;;7.40;3.27;;;;;;;13.44;55.23;96709.03;5063200;28;20436;-67
2022/01/03 10:49:36;;;;;;;6.40;2.23;;;;;;;13.28;55.81;96704.75;5069467;28;20791;-67
2022/01/03 10:52:12;;;;;;;5.20;1.77;;;;;;;13.42;54.93;96706.56;5071409;28;20797;-67
2022/01/03 10:54:38;;;;;;;6.63;1.80;;;;;;;12.86;56.66;96701.69;5071191;28;20444;-68
2022/01/03 10:57:04;;;;;;;6.77;1.40;;;;;;;13.20;55.74;96700.38;5067628;28;20896;-68
2022/01/03 10:59:31;;;;;;;7.40;2.03;;;;;;;13.09;56.34;96700.84;5070703;28;20490;-67
2022/01/03 11:01:56;;;;;;;5.30;1.60;;;;;;;13.56;54.44;96702.31;5071196;28;20178;-68
2022/01/03 11:04:34;;;;;;;5.47;1.57;;;;;;;13.22;55.14;96687.88;5068648;28;20424;-68
2022/01/03 11:13:10;;;;;;;4.40;1.50;;;;;;;13.28;55.14;96686.31;5074369;28;20466;-68
2022/01/03 11:15:37;;;;;;;9.27;2.03;;;;;;;13.67;54.23;96670.25;5075105;28;20420;-66
2022/01/03 11:18:24;;;;;;;4.43;1.90;;;;;;;13.21;55.46;96675.72;5075038;28;20889;-66
2022/01/03 11:21:14;;;;;;;6.80;1.80;;;;;;;13.75;53.64;96679.84;5066303;28;20428;-67
2022/01/03 11:23:50;;;;;;;7.70;1.80;;;;;;;14.17;52.15;96666.91;5071744;28;20404;-67
2022/01/03 11:26:18;;;;;;;3.90;1.63;;;;;;;13.66;53.60;96673.06;5074059;28;20463;-67
2022/01/03 11:28:44;;;;;;;4.10;1.40;;;;;;;13.16;54.63;96670.16;5074496;28;20444;-65
2022/01/03 11:31:12;;;;;;;5.73;1.70;;;;;;;13.67;53.54;96669.44;5074393;28;20946;-67
2022/01/03 11:33:39;;;;;;;6.13;1.70;;;;;;;14.11;52.67;96663.19;5074868;28;20417;-68
2022/01/03 11:36:05;;;;;;;5.57;2.10;;;;;;;13.78;53.60;96649.69;5068668;28;20912;-67
2022/01/03 11:38:32;;;;;;;5.87;1.70;;;;;;;14.04;52.70;96646.53;5073248;28;20456;-66
2022/01/03 11:41:01;;;;;;;7.70;2.10;;;;;;;13.47;53.85;96661.28;5072337;28;20416;-67
2022/01/03 11:43:28;;;;;;;8.03;2.53;;;;;;;13.28;53.81;96647.66;5068288;28;20493;-66
2022/01/03 11:45:54;;;;;;;6.00;1.70;;;;;;;13.25;53.41;96650.66;5073395;28;20421;-66
2022/01/03 11:48:19;;;;;;;4.37;1.60;;;;;;;13.57;52.29;96634.66;5073172;28;20984;-68
2022/01/03 11:50:45;;;;;;;5.60;1.73;;;;;;;13.01;52.95;96631.53;5065204;28;20236;-67
2022/01/03 11:53:11;;;;;;;5.30;1.80;;;;;;;12.63;53.11;96628.97;5073836;28;20261;-67
2022/01/03 11:55:39;;;;;;;9.00;1.83;;;;;;;13.29;52.00;96638.75;5072561;28;20497;-68